createdAt,value
2023-01-15T00:00:41.848Z,1.25
2023-01-15T00:03:09.226Z,1.67
2023-01-15T00:05:37.109Z,2.13
2023-01-15T00:08:04.816Z,1.95
2023-01-15T00:10:32.353Z,1.90
2023-01-15T00:12:59.778Z,2.00
2023-01-15T00:15:27.319Z,1.80
2023-01-15T00:17:54.937Z,2.53
2023-01-15T00:20:22.625Z,1.65
2023-01-15T00:22:49.974Z,1.95
2023-01-15T00:25:36.138Z,2.10
2023-01-15T00:28:03.779Z,1.88
2023-01-15T00:30:32.721Z,1.80
2023-01-15T00:33:00.465Z,1.42
2023-01-15T00:35:28.247Z,1.75
2023-01-15T00:37:56.625Z,1.50
2023-01-15T00:40:24.307Z,1.33
2023-01-15T00:42:54.303Z,2.22
2023-01-15T00:45:23.918Z,1.05
2023-01-15T00:47:51.716Z,1.20
2023-01-15T00:50:20.831Z,1.90
2023-01-15T00:52:49.867Z,2.10
2023-01-15T00:55:17.342Z,1.27
2023-01-15T00:57:44.851Z,1.60
2023-01-15T01:00:13.100Z,2.00
2023-01-15T01:02:41.196Z,1.80
2023-01-15T01:05:09.095Z,2.05
2023-01-15T01:07:36.537Z,1.90
2023-01-15T01:10:04.541Z,1.67
2023-01-15T01:12:32.011Z,2.00
2023-01-15T01:14:59.384Z,1.75
2023-01-15T01:17:27.040Z,2.28
2023-01-15T01:19:54.458Z,2.30
2023-01-15T01:22:21.860Z,2.20
2023-01-15T01:24:52.343Z,1.90
2023-01-15T01:27:19.799Z,1.35
2023-01-15T01:29:47.242Z,2.10
2023-01-15T01:32:14.790Z,2.30
2023-01-15T01:34:42.321Z,1.38
2023-01-15T01:37:09.647Z,1.45
2023-01-15T01:39:37.152Z,1.70
2023-01-15T01:42:06.201Z,1.33
2023-01-15T01:44:33.852Z,1.60
2023-01-15T01:47:03.506Z,2.05
2023-01-15T01:49:31.069Z,2.08
2023-01-15T01:52:09.238Z,1.77
2023-01-15T01:54:38.589Z,1.98
2023-01-15T01:57:08.890Z,1.27
2023-01-15T01:59:38.033Z,1.63
2023-01-15T02:02:06.269Z,1.77
2023-01-15T02:04:34.900Z,1.67
2023-01-15T02:07:03.728Z,1.83
2023-01-15T02:09:31.074Z,1.65
2023-01-15T02:12:09.512Z,1.75
2023-01-15T02:14:48.903Z,2.28
2023-01-15T02:17:27.154Z,2.03
2023-01-15T02:20:36.087Z,2.08
2023-01-15T02:23:29.284Z,1.52
2023-01-15T02:26:02.611Z,1.48
2023-01-15T02:28:34.601Z,1.75
2023-01-15T02:31:24.461Z,2.28
2023-01-15T02:33:59.253Z,2.00
2023-01-15T02:36:30.847Z,2.30
2023-01-15T02:39:02.230Z,1.88
2023-01-15T02:41:37.266Z,1.70
2023-01-15T02:44:08.523Z,2.50
2023-01-15T02:46:38.208Z,2.38
2023-01-15T02:49:08.498Z,2.78
2023-01-15T02:51:47.244Z,2.20
2023-01-15T02:54:18.153Z,2.40
2023-01-15T02:56:48.857Z,2.58
2023-01-15T02:59:26.757Z,2.28
2023-01-15T03:02:00.137Z,2.95
2023-01-15T03:04:31.706Z,2.58
2023-01-15T03:07:19.058Z,3.97
2023-01-15T03:09:48.519Z,2.47
2023-01-15T03:13:03.719Z,2.83
2023-01-15T03:16:11.477Z,2.55
2023-01-15T03:19:10.541Z,2.78
2023-01-15T03:21:58.812Z,2.75
2023-01-15T03:24:47.611Z,3.53
2023-01-15T03:27:16.091Z,3.35
2023-01-15T03:29:47.597Z,3.83
2023-01-15T03:32:17.835Z,3.45
2023-01-15T03:34:49.738Z,4.43
2023-01-15T03:37:18.373Z,4.07
2023-01-15T03:39:48.134Z,4.50
2023-01-15T03:42:29.911Z,5.03
2023-01-15T03:45:14.846Z,5.07
2023-01-15T03:47:45.045Z,4.43
2023-01-15T03:50:33.735Z,4.65
2023-01-15T03:53:21.346Z,5.40
2023-01-15T03:55:58.043Z,4.68
2023-01-15T03:58:47.341Z,5.20
2023-01-15T04:01:19.623Z,5.20
2023-01-15T04:03:52.828Z,5.15
2023-01-15T04:06:21.218Z,4.93
2023-01-15T04:08:49.189Z,4.60
2023-01-15T04:11:26.261Z,5.97
2023-01-15T04:13:54.875Z,5.18
2023-01-15T04:16:28.787Z,5.68
2023-01-15T04:18:56.588Z,5.13
2023-01-15T04:21:24.639Z,6.20
2023-01-15T04:23:53.089Z,4.47
2023-01-15T04:26:20.781Z,5.28
2023-01-15T04:28:48.819Z,5.53
2023-01-15T04:31:17.617Z,5.40
2023-01-15T04:33:45.009Z,5.20
2023-01-15T04:36:12.706Z,4.55
2023-01-15T04:38:40.093Z,4.85
2023-01-15T04:41:26.132Z,4.85
2023-01-15T04:44:08.824Z,5.03
2023-01-15T04:46:40.120Z,4.50
2023-01-15T04:49:10.456Z,4.68
2023-01-15T04:51:39.614Z,4.22
2023-01-15T04:54:09.336Z,4.50
2023-01-15T04:56:46.303Z,4.40
2023-01-15T04:59:16.352Z,3.55
2023-01-15T05:01:58.063Z,4.50
2023-01-15T05:04:30.592Z,4.50
2023-01-15T05:06:58.283Z,4.68
2023-01-15T05:09:25.735Z,4.47
2023-01-15T05:11:53.375Z,4.95
2023-01-15T05:14:20.829Z,4.30
2023-01-15T05:20:27.115Z,3.90
2023-01-15T05:22:54.608Z,4.00
2023-01-15T05:25:23.624Z,4.50
2023-01-15T05:27:51.089Z,4.30
2023-01-15T05:30:18.645Z,3.40
2023-01-15T05:32:47.544Z,4.70
2023-01-15T05:35:15.012Z,5.20
2023-01-15T05:37:44.508Z,4.82
2023-01-15T05:40:12.744Z,5.03
2023-01-15T05:42:40.200Z,4.22
2023-01-15T05:45:08.365Z,5.20
2023-01-15T05:47:36.057Z,4.78
2023-01-15T05:50:03.896Z,3.53
2023-01-15T05:52:31.392Z,4.47
2023-01-15T05:55:01.381Z,4.97
2023-01-15T05:57:28.842Z,4.22
2023-01-15T05:59:56.803Z,5.20
2023-01-15T06:02:24.519Z,4.80
2023-01-15T06:04:52.271Z,5.40
2023-01-15T06:07:19.809Z,4.45
2023-01-15T06:09:47.317Z,5.03
2023-01-15T06:12:14.709Z,4.78
2023-01-15T06:14:42.133Z,5.40
2023-01-15T06:17:09.526Z,4.57
2023-01-15T06:19:38.245Z,4.97
2023-01-15T06:22:05.907Z,4.90
2023-01-15T06:24:33.365Z,5.25
2023-01-15T06:27:00.854Z,5.20
2023-01-15T06:29:28.392Z,5.00
2023-01-15T06:31:58.459Z,5.00
2023-01-15T06:34:26.191Z,5.28
2023-01-15T06:36:53.746Z,5.10
2023-01-15T06:39:21.429Z,6.07
2023-01-15T06:42:07.668Z,5.65
2023-01-15T06:44:55.376Z,5.55
2023-01-15T06:47:23.854Z,6.18
2023-01-15T06:49:57.891Z,5.10
2023-01-15T06:52:27.045Z,5.30
2023-01-15T06:54:54.606Z,5.20
2023-01-15T06:57:22.579Z,6.30
2023-01-15T06:59:50.608Z,6.50
2023-01-15T07:02:18.613Z,6.55
2023-01-15T07:04:47.123Z,6.00
2023-01-15T07:07:16.569Z,4.95
2023-01-15T07:09:44.135Z,6.50
2023-01-15T07:12:11.827Z,6.32
2023-01-15T07:14:39.636Z,5.20
2023-01-15T07:17:07.136Z,6.15
2023-01-15T07:19:34.959Z,6.87
2023-01-15T07:22:02.529Z,6.53
2023-01-15T07:24:30.049Z,5.00
2023-01-15T07:26:57.716Z,5.35
2023-01-15T07:29:25.199Z,6.63
2023-01-15T07:31:52.715Z,6.68
2023-01-15T07:34:21.028Z,7.18
2023-01-15T07:36:49.646Z,7.07
2023-01-15T07:39:17.321Z,5.82
2023-01-15T07:42:03.526Z,7.13
2023-01-15T07:44:49.662Z,6.32
2023-01-15T07:47:40.880Z,5.75
2023-01-15T07:50:15.002Z,6.20
2023-01-15T07:52:42.527Z,6.50
2023-01-15T07:55:10.736Z,5.90
2023-01-15T07:57:38.424Z,5.80
2023-01-15T08:00:08.013Z,5.47
2023-01-15T08:02:35.401Z,5.80
2023-01-15T08:05:02.947Z,5.60
2023-01-15T08:07:30.431Z,6.57
2023-01-15T08:09:57.885Z,6.30
2023-01-15T08:12:43.952Z,5.65
2023-01-15T08:15:14.277Z,6.17
2023-01-15T08:17:43.984Z,6.78
2023-01-15T08:20:23.360Z,6.40
2023-01-15T08:22:51.236Z,5.95
2023-01-15T08:25:21.608Z,5.20
2023-01-15T08:27:49.115Z,5.47
2023-01-15T08:30:19.372Z,5.82
2023-01-15T08:32:48.662Z,5.00
2023-01-15T08:35:16.247Z,4.57
2023-01-15T08:37:43.866Z,5.55
2023-01-15T08:40:12.470Z,5.03
2023-01-15T08:42:40.946Z,5.65
2023-01-15T08:45:09.549Z,4.57
2023-01-15T08:47:37.777Z,4.20
2023-01-15T08:50:06.739Z,5.50
2023-01-15T08:52:34.174Z,4.68
2023-01-15T08:55:01.620Z,5.28
2023-01-15T08:57:29.074Z,4.22
2023-01-15T08:59:56.520Z,5.43
2023-01-15T09:02:23.843Z,4.43
2023-01-15T09:04:52.862Z,4.82
2023-01-15T09:07:20.611Z,5.43
2023-01-15T09:09:48.077Z,4.18
2023-01-15T09:12:15.682Z,4.80
2023-01-15T09:15:00.310Z,3.97
2023-01-15T09:17:29.884Z,4.47
2023-01-15T09:19:57.397Z,4.23
2023-01-15T09:22:28.225Z,3.70
2023-01-15T09:24:55.538Z,4.30
2023-01-15T09:27:22.960Z,3.80
2023-01-15T09:29:50.476Z,4.07
2023-01-15T09:32:17.940Z,4.28
2023-01-15T09:34:45.356Z,4.13
2023-01-15T09:37:12.854Z,3.80
2023-01-15T09:39:42.205Z,4.50
2023-01-15T09:42:57.618Z,3.65
2023-01-15T09:45:42.515Z,3.50
2023-01-15T09:48:36.728Z,3.83
2023-01-15T09:51:31.468Z,3.22
2023-01-15T09:54:12.229Z,3.90
2023-01-15T09:56:39.924Z,3.53
2023-01-15T09:59:25.210Z,3.30
2023-01-15T10:01:53.734Z,2.67
2023-01-15T10:04:40.107Z,2.37
2023-01-15T10:07:30.162Z,2.63
2023-01-15T10:10:06.181Z,3.22
2023-01-15T10:12:36.510Z,2.80
2023-01-15T10:15:31.230Z,3.10
2023-01-15T10:18:00.356Z,2.60
2023-01-15T10:21:00.752Z,2.60
2023-01-15T10:24:06.104Z,2.80
2023-01-15T10:26:56.491Z,2.88
2023-01-15T10:29:43.267Z,2.70
2023-01-15T10:32:26.668Z,2.13
2023-01-15T10:35:19.869Z,2.87
2023-01-15T10:37:49.944Z,2.88
2023-01-15T10:40:58.342Z,2.60
2023-01-15T10:43:35.724Z,2.70
2023-01-15T10:46:16.487Z,2.57
2023-01-15T10:48:51.947Z,2.42
2023-01-15T10:51:26.918Z,2.47
2023-01-15T10:54:03.422Z,2.30
2023-01-15T10:57:11.964Z,2.10
2023-01-15T10:59:58.727Z,2.30
2023-01-15T11:02:38.308Z,1.70
2023-01-15T11:05:06.823Z,2.20
2023-01-15T11:08:06.460Z,2.00
2023-01-15T11:10:32.930Z,1.77
2023-01-15T11:13:30.620Z,1.83
2023-01-15T11:16:16.732Z,2.50
2023-01-15T11:19:04.842Z,2.70
2023-01-15T11:21:35.253Z,2.03
2023-01-15T11:24:02.747Z,2.43
2023-01-15T11:26:32.465Z,2.67
2023-01-15T11:29:12.404Z,2.60
2023-01-15T11:31:41.765Z,1.23
2023-01-15T11:34:22.864Z,2.53
2023-01-15T11:37:05.177Z,2.72
2023-01-15T11:39:33.140Z,2.65
2023-01-15T11:42:23.308Z,3.22
2023-01-15T11:45:10.706Z,2.90
2023-01-15T11:47:56.607Z,3.40
2023-01-15T11:50:43.497Z,2.30
2023-01-15T11:53:18.837Z,2.78
2023-01-15T11:56:02.644Z,3.10
2023-01-15T11:58:34.919Z,2.43
2023-01-15T12:01:02.469Z,1.83
2023-01-15T12:03:34.105Z,2.42
2023-01-15T12:06:12.130Z,2.40
2023-01-15T12:09:06.277Z,2.63
2023-01-15T12:11:39.511Z,2.60
2023-01-15T12:14:29.071Z,3.30
2023-01-15T12:17:14.740Z,4.00
2023-01-15T12:19:45.008Z,2.90
2023-01-15T12:22:40.218Z,4.18
2023-01-15T12:25:20.331Z,3.88
2023-01-15T12:28:03.538Z,2.77
2023-01-15T12:30:58.802Z,2.95
2023-01-15T12:33:47.861Z,3.95
2023-01-15T12:36:39.519Z,3.63
2023-01-15T12:39:39.258Z,3.17
2023-01-15T12:42:30.560Z,4.65
2023-01-15T12:45:01.004Z,2.97
2023-01-15T12:47:44.100Z,3.08
2023-01-15T12:50:30.543Z,3.60
2023-01-15T12:53:02.192Z,3.17
2023-01-15T12:55:32.745Z,4.28
2023-01-15T12:58:02.870Z,4.18
2023-01-15T13:00:44.116Z,2.28
2023-01-15T13:03:23.824Z,3.80
2023-01-15T13:05:58.022Z,3.38
2023-01-15T13:08:56.156Z,3.95
2023-01-15T13:11:24.629Z,2.17
2023-01-15T13:13:58.425Z,2.72
2023-01-15T13:16:39.121Z,3.00
2023-01-15T13:19:28.670Z,2.92
2023-01-15T13:22:01.724Z,2.85
2023-01-15T13:24:55.765Z,3.42
2023-01-15T13:27:43.225Z,2.72
2023-01-15T13:30:49.444Z,2.95
2023-01-15T13:33:41.020Z,2.85
2023-01-15T13:36:23.405Z,2.25
2023-01-15T13:38:55.673Z,3.03
2023-01-15T13:41:46.704Z,1.85
2023-01-15T13:44:21.753Z,2.17
2023-01-15T13:47:10.664Z,3.00
2023-01-15T13:49:49.875Z,2.00
2023-01-15T13:52:32.745Z,3.17
2023-01-15T13:55:19.867Z,2.25
2023-01-15T13:57:50.771Z,2.30
2023-01-15T14:00:37.047Z,3.88
2023-01-15T14:03:29.189Z,2.28
2023-01-15T14:06:02.982Z,2.05
2023-01-15T14:08:42.558Z,1.80
2023-01-15T14:11:51.257Z,2.90
2023-01-15T14:14:49.961Z,3.70
2023-01-15T14:17:42.071Z,1.67
2023-01-15T14:20:30.420Z,2.97
2023-01-15T14:23:12.861Z,2.33
2023-01-15T14:25:49.120Z,2.00
2023-01-15T14:28:25.725Z,2.43
2023-01-15T14:31:12.038Z,2.60
2023-01-15T14:33:55.950Z,2.10
2023-01-15T14:36:46.681Z,2.50
2023-01-15T14:39:39.899Z,3.50
2023-01-15T14:42:28.558Z,2.80
2023-01-15T14:45:01.983Z,3.47
2023-01-15T14:47:37.069Z,2.07
2023-01-15T14:50:26.845Z,2.42
2023-01-15T14:52:58.877Z,3.23
2023-01-15T14:55:27.210Z,2.83
2023-01-15T14:58:03.152Z,2.30
2023-01-15T15:00:36.051Z,2.53
2023-01-15T15:03:14.715Z,2.30
2023-01-15T15:05:44.439Z,2.70
2023-01-15T15:08:14.955Z,1.70
2023-01-15T15:10:47.428Z,3.40
2023-01-15T15:13:36.362Z,2.38
2023-01-15T15:16:37.017Z,1.90
2023-01-15T15:19:13.761Z,2.50
2023-01-15T15:21:45.642Z,2.90
2023-01-15T15:24:18.558Z,2.33
2023-01-15T15:26:45.913Z,1.83
2023-01-15T15:29:16.129Z,2.73
2023-01-15T15:31:48.518Z,1.90
2023-01-15T15:34:20.568Z,1.38
2023-01-15T15:36:48.146Z,3.20
2023-01-15T15:39:53.736Z,3.28
2023-01-15T15:42:45.220Z,2.67
2023-01-15T15:45:39.681Z,2.60
2023-01-15T15:48:43.285Z,2.90
2023-01-15T15:51:32.694Z,3.30
2023-01-15T15:54:19.031Z,3.50
2023-01-15T15:57:02.731Z,3.08
2023-01-15T15:59:33.823Z,2.72
2023-01-15T16:02:15.476Z,2.63
2023-01-15T16:05:25.444Z,3.33
2023-01-15T16:07:55.658Z,1.95
2023-01-15T16:10:27.164Z,3.08
2023-01-15T16:12:58.822Z,2.75
2023-01-15T16:15:30.079Z,2.85
2023-01-15T16:17:58.881Z,1.48
2023-01-15T16:20:27.076Z,2.92
2023-01-15T16:22:56.790Z,1.48
2023-01-15T16:25:28.672Z,2.85
2023-01-15T16:27:56.834Z,2.75
2023-01-15T16:30:24.797Z,2.47
2023-01-15T16:32:53.036Z,2.20
2023-01-15T16:35:23.065Z,3.03
2023-01-15T16:37:55.426Z,2.67
2023-01-15T16:40:26.135Z,3.13
2023-01-15T16:43:06.537Z,2.10
2023-01-15T16:45:36.066Z,1.92
2023-01-15T16:48:25.616Z,3.25
2023-01-15T16:50:53.342Z,1.30
2023-01-15T16:53:36.072Z,3.35
2023-01-15T16:56:03.843Z,1.75
2023-01-15T16:58:41.593Z,2.38
2023-01-15T17:01:30.234Z,3.35
2023-01-15T17:03:59.010Z,2.92
2023-01-15T17:06:28.069Z,2.92
2023-01-15T17:08:57.217Z,3.13
2023-01-15T17:11:30.647Z,2.25
2023-01-15T17:14:19.273Z,3.28
2023-01-15T17:16:46.842Z,3.22
2023-01-15T17:19:17.389Z,2.08
2023-01-15T17:21:47.680Z,3.25
2023-01-15T17:24:15.258Z,3.10
2023-01-15T17:26:42.647Z,3.08
2023-01-15T17:29:12.469Z,2.03
2023-01-15T17:31:40.399Z,2.43
2023-01-15T17:34:08.143Z,2.60
2023-01-15T17:36:35.699Z,2.00
2023-01-15T17:39:03.133Z,3.22
2023-01-15T17:41:30.581Z,2.17
2023-01-15T17:43:57.886Z,2.13
2023-01-15T17:46:25.463Z,2.65
2023-01-15T17:48:52.980Z,3.33
2023-01-15T17:51:20.453Z,2.78
2023-01-15T17:53:47.863Z,3.15
2023-01-15T17:56:33.900Z,3.30
2023-01-15T17:59:20.047Z,2.57
2023-01-15T18:02:06.734Z,3.53
2023-01-15T18:05:00.655Z,3.73
2023-01-15T18:07:37.540Z,2.67
2023-01-15T18:10:06.453Z,3.78
2023-01-15T18:12:33.970Z,2.53
2023-01-15T18:15:01.544Z,2.90
2023-01-15T18:17:31.452Z,3.17
2023-01-15T18:20:00.040Z,3.40
2023-01-15T18:22:27.582Z,3.50
2023-01-15T18:24:55.098Z,3.33
2023-01-15T18:27:30.164Z,3.75
2023-01-15T18:29:59.541Z,4.07
2023-01-15T18:32:30.854Z,4.10
2023-01-15T18:34:58.181Z,1.92
2023-01-15T18:37:25.593Z,3.67
2023-01-15T18:39:53.041Z,2.00
2023-01-15T18:42:39.145Z,2.85
2023-01-15T18:45:26.008Z,3.55
2023-01-15T18:47:53.485Z,2.95
2023-01-15T18:50:20.839Z,3.28
2023-01-15T18:52:50.810Z,3.35
2023-01-15T18:55:28.852Z,3.50
2023-01-15T18:57:57.111Z,2.30
2023-01-15T19:00:25.095Z,3.33
2023-01-15T19:02:52.814Z,4.13
2023-01-15T19:05:20.630Z,2.92
2023-01-15T19:07:48.213Z,2.13
2023-01-15T19:10:17.972Z,3.45
2023-01-15T19:12:45.599Z,2.85
2023-01-15T19:15:33.785Z,3.88
2023-01-15T19:18:19.994Z,2.05
2023-01-15T19:20:47.644Z,3.85
2023-01-15T19:23:15.181Z,3.53
2023-01-15T19:25:45.404Z,2.50
2023-01-15T19:28:17.843Z,3.17
2023-01-15T19:31:06.899Z,3.92
2023-01-15T19:33:34.854Z,2.97
2023-01-15T19:36:02.710Z,3.70
2023-01-15T19:38:30.355Z,4.20
2023-01-15T19:41:17.807Z,3.28
2023-01-15T19:44:03.681Z,2.05
2023-01-15T19:46:49.745Z,3.70
2023-01-15T19:49:41.921Z,3.55
2023-01-15T19:52:28.153Z,2.63
2023-01-15T19:54:56.086Z,3.50
2023-01-15T19:57:23.918Z,2.95
2023-01-15T19:59:52.460Z,2.75
2023-01-15T20:02:20.202Z,2.78
2023-01-15T20:04:48.679Z,4.00
2023-01-15T20:07:16.720Z,3.10
2023-01-15T20:09:44.915Z,3.70
2023-01-15T20:12:31.901Z,1.85
2023-01-15T20:14:59.586Z,2.65
2023-01-15T20:17:29.829Z,2.10
2023-01-15T20:19:58.076Z,3.10
2023-01-15T20:22:27.279Z,3.00
2023-01-15T20:24:54.704Z,2.92
2023-01-15T20:27:22.471Z,2.83
2023-01-15T20:29:56.254Z,2.50
2023-01-15T20:32:23.866Z,2.30
2023-01-15T20:34:51.373Z,2.50
2023-01-15T20:37:18.922Z,2.30
2023-01-15T20:39:46.475Z,2.25
2023-01-15T20:42:34.262Z,2.60
2023-01-15T20:45:07.768Z,1.67
2023-01-15T20:47:53.632Z,2.50
2023-01-15T20:50:21.296Z,2.20
2023-01-15T20:52:51.030Z,2.50
2023-01-15T20:55:19.975Z,2.47
2023-01-15T20:57:47.786Z,2.70
2023-01-15T21:00:21.086Z,2.28
2023-01-15T21:02:48.515Z,2.25
2023-01-15T21:05:16.055Z,2.63
2023-01-15T21:07:43.511Z,2.05
2023-01-15T21:10:14.439Z,3.10
2023-01-15T21:12:43.066Z,2.40
2023-01-15T21:15:10.915Z,2.40
2023-01-15T21:17:39.592Z,2.33
2023-01-15T21:20:10.619Z,1.90
2023-01-15T21:22:38.307Z,2.90
2023-01-15T21:25:09.970Z,2.15
2023-01-15T21:27:38.346Z,2.58
2023-01-15T21:30:07.338Z,2.15
2023-01-15T21:32:34.888Z,2.28
2023-01-15T21:35:02.408Z,1.55
2023-01-15T21:37:30.358Z,2.05
2023-01-15T21:39:57.876Z,1.20
2023-01-15T21:42:43.777Z,2.55
2023-01-15T21:45:11.826Z,1.60
2023-01-15T21:47:41.564Z,1.70
2023-01-15T21:50:10.054Z,1.10
2023-01-15T21:52:39.016Z,1.90
2023-01-15T21:55:07.544Z,2.15
2023-01-15T21:57:34.948Z,2.10
2023-01-15T22:00:02.549Z,2.30
2023-01-15T22:02:30.741Z,1.13
2023-01-15T22:04:58.136Z,1.85
2023-01-15T22:07:25.572Z,1.70
2023-01-15T22:09:53.043Z,1.70
2023-01-15T22:12:20.571Z,1.77
2023-01-15T22:14:49.357Z,2.00
2023-01-15T22:17:16.842Z,2.38
2023-01-15T22:19:44.413Z,1.08
2023-01-15T22:22:11.872Z,2.00
2023-01-15T22:24:40.161Z,2.10
2023-01-15T22:27:09.253Z,1.52
2023-01-15T22:29:38.973Z,1.80
2023-01-15T22:32:09.950Z,1.98
2023-01-15T22:34:37.673Z,1.65
2023-01-15T22:37:05.013Z,1.40
2023-01-15T22:39:32.548Z,1.48
2023-01-15T22:42:18.469Z,1.90
2023-01-15T22:44:47.167Z,1.75
2023-01-15T22:47:14.610Z,1.77
2023-01-15T22:49:42.109Z,1.35
2023-01-15T22:52:09.705Z,1.60
2023-01-15T22:54:37.052Z,1.42
2023-01-15T22:57:05.240Z,1.70
2023-01-15T22:59:32.737Z,1.50
2023-01-15T23:02:00.385Z,1.73
2023-01-15T23:04:28.008Z,2.10
2023-01-15T23:06:55.512Z,2.03
2023-01-15T23:09:24.031Z,1.88
2023-01-15T23:11:51.939Z,1.85
2023-01-15T23:14:21.445Z,2.30
2023-01-15T23:16:50.157Z,1.70
2023-01-15T23:19:19.030Z,1.33
2023-01-15T23:21:46.566Z,2.05
2023-01-15T23:24:14.121Z,2.20
2023-01-15T23:26:42.342Z,1.88
2023-01-15T23:29:09.824Z,2.10
2023-01-15T23:31:37.382Z,1.90
2023-01-15T23:34:04.863Z,1.80
2023-01-15T23:36:32.229Z,1.90
2023-01-15T23:38:59.715Z,1.35
2023-01-15T23:41:45.768Z,2.13
2023-01-15T23:44:37.148Z,2.28
2023-01-15T23:47:05.615Z,1.90
2023-01-15T23:49:33.051Z,2.20
2023-01-15T23:52:00.654Z,1.98
2023-01-15T23:54:30.235Z,2.05
2023-01-15T23:56:59.361Z,2.17
2023-01-15T23:59:27.870Z,1.52
